sensor_id;sensor_type;location;lat;lon;timestamp;P1;durP1;ratioP1;P2;durP2;ratioP2
67564;SDS011;54393;53.556;49.216;2022-12-07T00:01:39;6.57;;;6.00;;
67564;SDS011;54393;53.556;49.216;2022-12-07T00:04:07;6.37;;;5.82;;
67564;SDS011;54393;53.556;49.216;2022-12-07T00:06:36;6.80;;;6.07;;
67564;SDS011;54393;53.556;49.216;2022-12-07T00:09:04;7.50;;;5.93;;
67564;SDS011;54393;53.556;49.216;2022-12-07T00:11:32;6.05;;;5.53;;
67564;SDS011;54393;53.556;49.216;2022-12-07T00:13:59;6.05;;;5.55;;
67564;SDS011;54393;53.556;49.216;2022-12-07T00:16:28;6.60;;;5.87;;
67564;SDS011;54393;53.556;49.216;2022-12-07T00:18:56;6.50;;;5.90;;
67564;SDS011;54393;53.556;49.216;2022-12-07T00:21:25;6.35;;;5.75;;
67564;SDS011;54393;53.556;49.216;2022-12-07T00:23:53;6.35;;;5.85;;
67564;SDS011;54393;53.556;49.216;2022-12-07T00:26:23;6.55;;;5.95;;
67564;SDS011;54393;53.556;49.216;2022-12-07T00:28:57;7.05;;;6.30;;
67564;SDS011;54393;53.556;49.216;2022-12-07T00:31:32;6.50;;;5.90;;
67564;SDS011;54393;53.556;49.216;2022-12-07T00:34:03;5.93;;;5.43;;
67564;SDS011;54393;53.556;49.216;2022-12-07T00:36:30;6.05;;;5.55;;
67564;SDS011;54393;53.556;49.216;2022-12-07T00:38:57;6.32;;;5.43;;
67564;SDS011;54393;53.556;49.216;2022-12-07T00:41:25;5.70;;;5.12;;
67564;SDS011;54393;53.556;49.216;2022-12-07T00:43:52;6.05;;;5.55;;
67564;SDS011;54393;53.556;49.216;2022-12-07T00:46:19;5.85;;;5.35;;
67564;SDS011;54393;53.556;49.216;2022-12-07T00:48:46;5.85;;;5.28;;
67564;SDS011;54393;53.556;49.216;2022-12-07T00:51:14;6.25;;;5.68;;
67564;SDS011;54393;53.556;49.216;2022-12-07T00:53:41;5.90;;;5.30;;
67564;SDS011;54393;53.556;49.216;2022-12-07T00:56:08;6.03;;;5.37;;
67564;SDS011;54393;53.556;49.216;2022-12-07T00:58:42;5.75;;;5.12;;
67564;SDS011;54393;53.556;49.216;2022-12-07T01:01:09;6.35;;;5.75;;
67564;SDS011;54393;53.556;49.216;2022-12-07T01:03:36;6.10;;;5.60;;
67564;SDS011;54393;53.556;49.216;2022-12-07T01:06:03;5.68;;;5.18;;
67564;SDS011;54393;53.556;49.216;2022-12-07T01:08:30;5.90;;;5.40;;
67564;SDS011;54393;53.556;49.216;2022-12-07T01:10:57;5.65;;;5.15;;
67564;SDS011;54393;53.556;49.216;2022-12-07T01:13:28;5.55;;;5.05;;
67564;SDS011;54393;53.556;49.216;2022-12-07T01:15:56;5.82;;;5.32;;
67564;SDS011;54393;53.556;49.216;2022-12-07T01:18:27;5.62;;;5.10;;
67564;SDS011;54393;53.556;49.216;2022-12-07T01:21:01;5.90;;;5.50;;
67564;SDS011;54393;53.556;49.216;2022-12-07T01:23:37;5.82;;;5.28;;
67564;SDS011;54393;53.556;49.216;2022-12-07T01:26:05;5.85;;;5.25;;
67564;SDS011;54393;53.556;49.216;2022-12-07T01:28:33;5.90;;;5.40;;
67564;SDS011;54393;53.556;49.216;2022-12-07T01:31:03;6.12;;;5.60;;
67564;SDS011;54393;53.556;49.216;2022-12-07T01:33:35;5.95;;;5.45;;
67564;SDS011;54393;53.556;49.216;2022-12-07T01:36:03;5.57;;;5.07;;
67564;SDS011;54393;53.556;49.216;2022-12-07T01:38:43;5.53;;;5.03;;
67564;SDS011;54393;53.556;49.216;2022-12-07T01:41:11;5.80;;;5.30;;
67564;SDS011;54393;53.556;49.216;2022-12-07T01:44:06;5.72;;;5.22;;
67564;SDS011;54393;53.556;49.216;2022-12-07T01:46:34;6.03;;;5.53;;
67564;SDS011;54393;53.556;49.216;2022-12-07T01:49:01;5.32;;;4.90;;
67564;SDS011;54393;53.556;49.216;2022-12-07T01:51:28;5.37;;;4.87;;
67564;SDS011;54393;53.556;49.216;2022-12-07T01:53:55;5.65;;;5.15;;
67564;SDS011;54393;53.556;49.216;2022-12-07T01:56:23;5.90;;;5.40;;
67564;SDS011;54393;53.556;49.216;2022-12-07T01:58:50;5.62;;;5.12;;
67564;SDS011;54393;53.556;49.216;2022-12-07T02:01:18;5.50;;;5.00;;
67564;SDS011;54393;53.556;49.216;2022-12-07T02:03:44;5.30;;;4.80;;
67564;SDS011;54393;53.556;49.216;2022-12-07T02:06:12;5.45;;;4.95;;
67564;SDS011;54393;53.556;49.216;2022-12-07T02:08:41;5.53;;;5.03;;
67564;SDS011;54393;53.556;49.216;2022-12-07T02:11:08;5.37;;;4.87;;
67564;SDS011;54393;53.556;49.216;2022-12-07T02:13:35;4.82;;;4.43;;
67564;SDS011;54393;53.556;49.216;2022-12-07T02:16:25;5.45;;;5.05;;
67564;SDS011;54393;53.556;49.216;2022-12-07T02:38:03;5.18;;;4.68;;
67564;SDS011;54393;53.556;49.216;2022-12-07T02:40:46;5.15;;;4.75;;
67564;SDS011;54393;53.556;49.216;2022-12-07T02:45:54;5.53;;;5.03;;
67564;SDS011;54393;53.556;49.216;2022-12-07T02:48:23;5.22;;;4.82;;
67564;SDS011;54393;53.556;49.216;2022-12-07T02:50:51;5.12;;;4.72;;
67564;SDS011;54393;53.556;49.216;2022-12-07T02:53:28;4.95;;;4.55;;
67564;SDS011;54393;53.556;49.216;2022-12-07T02:55:54;5.28;;;4.78;;
67564;SDS011;54393;53.556;49.216;2022-12-07T02:58:46;5.40;;;4.90;;
67564;SDS011;54393;53.556;49.216;2022-12-07T03:03:56;5.57;;;5.07;;
67564;SDS011;54393;53.556;49.216;2022-12-07T03:06:35;5.70;;;5.10;;
67564;SDS011;54393;53.556;49.216;2022-12-07T03:12:01;5.12;;;4.72;;
67564;SDS011;54393;53.556;49.216;2022-12-07T03:15:13;5.10;;;4.60;;
67564;SDS011;54393;53.556;49.216;2022-12-07T03:17:40;4.97;;;4.57;;
67564;SDS011;54393;53.556;49.216;2022-12-07T03:20:09;5.43;;;4.93;;
67564;SDS011;54393;53.556;49.216;2022-12-07T03:22:38;4.87;;;4.47;;
67564;SDS011;54393;53.556;49.216;2022-12-07T03:25:08;5.05;;;4.65;;
67564;SDS011;54393;53.556;49.216;2022-12-07T03:27:38;5.12;;;4.62;;
67564;SDS011;54393;53.556;49.216;2022-12-07T03:30:10;4.87;;;4.40;;
67564;SDS011;54393;53.556;49.216;2022-12-07T03:37:49;5.05;;;4.62;;
67564;SDS011;54393;53.556;49.216;2022-12-07T03:40:35;5.15;;;4.72;;
67564;SDS011;54393;53.556;49.216;2022-12-07T03:43:22;5.10;;;4.57;;
67564;SDS011;54393;53.556;49.216;2022-12-07T03:48:40;4.93;;;4.53;;
67564;SDS011;54393;53.556;49.216;2022-12-07T03:54:10;5.12;;;4.65;;
67564;SDS011;54393;53.556;49.216;2022-12-07T03:56:57;4.75;;;4.35;;
67564;SDS011;54393;53.556;49.216;2022-12-07T03:59:25;4.85;;;4.45;;
67564;SDS011;54393;53.556;49.216;2022-12-07T04:01:53;5.05;;;4.65;;
67564;SDS011;54393;53.556;49.216;2022-12-07T04:04:21;5.05;;;4.65;;
67564;SDS011;54393;53.556;49.216;2022-12-07T04:06:50;4.97;;;4.40;;
67564;SDS011;54393;53.556;49.216;2022-12-07T04:09:16;4.85;;;4.45;;
67564;SDS011;54393;53.556;49.216;2022-12-07T04:11:43;4.57;;;4.18;;
67564;SDS011;54393;53.556;49.216;2022-12-07T04:14:09;4.93;;;4.53;;
67564;SDS011;54393;53.556;49.216;2022-12-07T04:16:50;4.95;;;4.53;;
67564;SDS011;54393;53.556;49.216;2022-12-07T04:19:18;4.90;;;4.43;;
67564;SDS011;54393;53.556;49.216;2022-12-07T04:21:46;4.93;;;4.53;;
67564;SDS011;54393;53.556;49.216;2022-12-07T04:24:13;5.18;;;4.78;;
67564;SDS011;54393;53.556;49.216;2022-12-07T04:26:40;5.62;;;5.12;;
67564;SDS011;54393;53.556;49.216;2022-12-07T04:29:07;5.25;;;4.75;;
67564;SDS011;54393;53.556;49.216;2022-12-07T04:31:34;4.82;;;4.40;;
67564;SDS011;54393;53.556;49.216;2022-12-07T04:34:01;5.20;;;4.70;;
67564;SDS011;54393;53.556;49.216;2022-12-07T04:36:28;5.43;;;5.00;;
67564;SDS011;54393;53.556;49.216;2022-12-07T04:38:55;5.00;;;4.55;;
67564;SDS011;54393;53.556;49.216;2022-12-07T04:41:22;4.90;;;4.50;;
67564;SDS011;54393;53.556;49.216;2022-12-07T04:43:53;4.78;;;4.37;;
67564;SDS011;54393;53.556;49.216;2022-12-07T04:46:20;4.68;;;4.28;;
67564;SDS011;54393;53.556;49.216;2022-12-07T04:48:47;5.18;;;4.32;;
67564;SDS011;54393;53.556;49.216;2022-12-07T04:51:15;4.95;;;4.53;;
67564;SDS011;54393;53.556;49.216;2022-12-07T04:53:44;4.85;;;4.43;;
67564;SDS011;54393;53.556;49.216;2022-12-07T04:56:10;5.30;;;4.80;;
67564;SDS011;54393;53.556;49.216;2022-12-07T04:58:36;6.03;;;4.75;;
67564;SDS011;54393;53.556;49.216;2022-12-07T05:01:03;4.60;;;4.30;;
67564;SDS011;54393;53.556;49.216;2022-12-07T05:03:29;4.72;;;4.32;;
67564;SDS011;54393;53.556;49.216;2022-12-07T05:05:56;4.20;;;3.85;;
67564;SDS011;54393;53.556;49.216;2022-12-07T05:08:22;7.18;;;4.53;;
67564;SDS011;54393;53.556;49.216;2022-12-07T05:10:49;5.40;;;4.57;;
67564;SDS011;54393;53.556;49.216;2022-12-07T05:13:15;4.80;;;4.40;;
67564;SDS011;54393;53.556;49.216;2022-12-07T05:15:42;4.62;;;4.20;;
67564;SDS011;54393;53.556;49.216;2022-12-07T05:18:09;5.22;;;4.75;;
67564;SDS011;54393;53.556;49.216;2022-12-07T05:20:38;5.53;;;4.50;;
67564;SDS011;54393;53.556;49.216;2022-12-07T05:23:05;4.68;;;4.28;;
67564;SDS011;54393;53.556;49.216;2022-12-07T05:25:31;4.43;;;4.03;;
67564;SDS011;54393;53.556;49.216;2022-12-07T05:27:58;4.50;;;4.10;;
67564;SDS011;54393;53.556;49.216;2022-12-07T05:30:25;4.53;;;4.12;;
67564;SDS011;54393;53.556;49.216;2022-12-07T05:32:51;4.72;;;4.32;;
67564;SDS011;54393;53.556;49.216;2022-12-07T05:35:18;5.03;;;4.62;;
67564;SDS011;54393;53.556;49.216;2022-12-07T05:37:45;5.75;;;4.28;;
67564;SDS011;54393;53.556;49.216;2022-12-07T05:40:12;5.10;;;4.70;;
67564;SDS011;54393;53.556;49.216;2022-12-07T05:42:39;4.12;;;3.80;;
67564;SDS011;54393;53.556;49.216;2022-12-07T05:45:06;4.72;;;4.32;;
67564;SDS011;54393;53.556;49.216;2022-12-07T05:47:33;4.57;;;4.18;;
67564;SDS011;54393;53.556;49.216;2022-12-07T05:50:00;4.93;;;4.50;;
67564;SDS011;54393;53.556;49.216;2022-12-07T05:52:26;5.97;;;5.12;;
67564;SDS011;54393;53.556;49.216;2022-12-07T05:54:52;9.68;;;7.22;;
67564;SDS011;54393;53.556;49.216;2022-12-07T05:57:19;9.50;;;7.75;;
67564;SDS011;54393;53.556;49.216;2022-12-07T05:59:45;9.30;;;8.23;;
67564;SDS011;54393;53.556;49.216;2022-12-07T06:02:13;12.73;;;9.40;;
67564;SDS011;54393;53.556;49.216;2022-12-07T06:04:41;12.20;;;9.32;;
67564;SDS011;54393;53.556;49.216;2022-12-07T06:07:09;10.05;;;9.05;;
67564;SDS011;54393;53.556;49.216;2022-12-07T06:09:37;11.18;;;8.32;;
67564;SDS011;54393;53.556;49.216;2022-12-07T06:12:05;10.65;;;8.05;;
67564;SDS011;54393;53.556;49.216;2022-12-07T06:14:50;11.85;;;8.13;;
67564;SDS011;54393;53.556;49.216;2022-12-07T06:17:17;10.65;;;7.85;;
67564;SDS011;54393;53.556;49.216;2022-12-07T06:19:43;8.25;;;7.45;;
67564;SDS011;54393;53.556;49.216;2022-12-07T06:22:10;7.75;;;7.05;;
67564;SDS011;54393;53.556;49.216;2022-12-07T06:24:37;9.70;;;7.68;;
67564;SDS011;54393;53.556;49.216;2022-12-07T06:27:03;8.13;;;7.32;;
67564;SDS011;54393;53.556;49.216;2022-12-07T06:29:30;7.80;;;6.68;;
67564;SDS011;54393;53.556;49.216;2022-12-07T06:31:56;8.55;;;7.60;;
67564;SDS011;54393;53.556;49.216;2022-12-07T06:34:23;7.47;;;6.72;;
67564;SDS011;54393;53.556;49.216;2022-12-07T06:36:50;8.82;;;6.43;;
67564;SDS011;54393;53.556;49.216;2022-12-07T06:39:19;7.57;;;6.75;;
67564;SDS011;54393;53.556;49.216;2022-12-07T06:41:55;6.18;;;5.60;;
67564;SDS011;54393;53.556;49.216;2022-12-07T06:44:22;6.07;;;5.47;;
67564;SDS011;54393;53.556;49.216;2022-12-07T06:46:48;6.40;;;5.90;;
67564;SDS011;54393;53.556;49.216;2022-12-07T06:49:15;7.20;;;5.70;;
67564;SDS011;54393;53.556;49.216;2022-12-07T06:51:42;6.15;;;5.55;;
67564;SDS011;54393;53.556;49.216;2022-12-07T06:54:12;6.68;;;5.40;;
67564;SDS011;54393;53.556;49.216;2022-12-07T06:56:39;6.03;;;5.43;;
67564;SDS011;54393;53.556;49.216;2022-12-07T06:59:06;6.00;;;5.40;;
67564;SDS011;54393;53.556;49.216;2022-12-07T07:01:33;6.53;;;5.43;;
67564;SDS011;54393;53.556;49.216;2022-12-07T07:04:00;5.70;;;5.10;;
67564;SDS011;54393;53.556;49.216;2022-12-07T07:06:27;5.10;;;4.60;;
67564;SDS011;54393;53.556;49.216;2022-12-07T07:08:53;5.45;;;4.95;;
67564;SDS011;54393;53.556;49.216;2022-12-07T07:11:20;5.57;;;5.07;;
67564;SDS011;54393;53.556;49.216;2022-12-07T07:13:46;5.50;;;5.00;;
67564;SDS011;54393;53.556;49.216;2022-12-07T07:16:13;6.47;;;5.30;;
67564;SDS011;54393;53.556;49.216;2022-12-07T07:18:39;5.35;;;4.82;;
67564;SDS011;54393;53.556;49.216;2022-12-07T07:21:06;6.75;;;4.95;;
67564;SDS011;54393;53.556;49.216;2022-12-07T07:23:32;5.12;;;4.62;;
67564;SDS011;54393;53.556;49.216;2022-12-07T07:25:59;5.10;;;4.60;;
67564;SDS011;54393;53.556;49.216;2022-12-07T07:28:25;4.93;;;4.50;;
67564;SDS011;54393;53.556;49.216;2022-12-07T07:30:51;4.82;;;4.43;;
67564;SDS011;54393;53.556;49.216;2022-12-07T07:33:20;6.07;;;4.57;;
67564;SDS011;54393;53.556;49.216;2022-12-07T07:35:46;4.55;;;4.15;;
67564;SDS011;54393;53.556;49.216;2022-12-07T07:38:13;5.15;;;4.70;;
67564;SDS011;54393;53.556;49.216;2022-12-07T07:40:39;5.97;;;4.45;;
67564;SDS011;54393;53.556;49.216;2022-12-07T07:43:06;4.47;;;4.18;;
67564;SDS011;54393;53.556;49.216;2022-12-07T07:45:32;5.20;;;4.70;;
67564;SDS011;54393;53.556;49.216;2022-12-07T07:47:59;4.62;;;4.22;;
67564;SDS011;54393;53.556;49.216;2022-12-07T07:50:25;4.45;;;4.05;;
67564;SDS011;54393;53.556;49.216;2022-12-07T07:52:52;4.43;;;4.10;;
67564;SDS011;54393;53.556;49.216;2022-12-07T07:55:18;4.82;;;4.18;;
67564;SDS011;54393;53.556;49.216;2022-12-07T07:57:45;4.90;;;4.40;;
67564;SDS011;54393;53.556;49.216;2022-12-07T08:00:12;6.53;;;4.30;;
67564;SDS011;54393;53.556;49.216;2022-12-07T08:02:39;9.25;;;4.35;;
67564;SDS011;54393;53.556;49.216;2022-12-07T08:05:08;5.40;;;4.62;;
67564;SDS011;54393;53.556;49.216;2022-12-07T08:07:35;5.90;;;4.20;;
67564;SDS011;54393;53.556;49.216;2022-12-07T08:10:02;6.28;;;4.12;;
67564;SDS011;54393;53.556;49.216;2022-12-07T08:12:29;5.28;;;4.53;;
67564;SDS011;54393;53.556;49.216;2022-12-07T08:14:56;4.47;;;3.90;;
67564;SDS011;54393;53.556;49.216;2022-12-07T08:17:22;4.50;;;4.10;;
67564;SDS011;54393;53.556;49.216;2022-12-07T08:19:49;5.40;;;4.90;;
67564;SDS011;54393;53.556;49.216;2022-12-07T08:22:16;5.72;;;4.22;;
67564;SDS011;54393;53.556;49.216;2022-12-07T08:24:44;4.37;;;3.97;;
67564;SDS011;54393;53.556;49.216;2022-12-07T08:27:10;4.40;;;4.00;;
67564;SDS011;54393;53.556;49.216;2022-12-07T08:29:37;4.28;;;3.97;;
67564;SDS011;54393;53.556;49.216;2022-12-07T08:32:03;4.75;;;4.35;;
67564;SDS011;54393;53.556;49.216;2022-12-07T08:34:30;4.20;;;3.80;;
67564;SDS011;54393;53.556;49.216;2022-12-07T08:36:56;3.83;;;3.53;;
67564;SDS011;54393;53.556;49.216;2022-12-07T08:39:22;4.10;;;3.70;;
67564;SDS011;54393;53.556;49.216;2022-12-07T08:41:49;4.43;;;4.03;;
67564;SDS011;54393;53.556;49.216;2022-12-07T08:44:15;4.07;;;3.75;;
67564;SDS011;54393;53.556;49.216;2022-12-07T08:46:44;4.30;;;3.90;;
67564;SDS011;54393;53.556;49.216;2022-12-07T08:49:15;4.53;;;4.12;;
67564;SDS011;54393;53.556;49.216;2022-12-07T08:51:47;4.80;;;4.40;;
67564;SDS011;54393;53.556;49.216;2022-12-07T08:54:15;4.62;;;4.12;;
67564;SDS011;54393;53.556;49.216;2022-12-07T08:56:43;3.95;;;3.65;;
67564;SDS011;54393;53.556;49.216;2022-12-07T08:59:10;4.43;;;4.03;;
67564;SDS011;54393;53.556;49.216;2022-12-07T09:01:37;4.35;;;3.40;;
67564;SDS011;54393;53.556;49.216;2022-12-07T09:04:04;5.28;;;4.00;;
67564;SDS011;54393;53.556;49.216;2022-12-07T09:06:30;3.60;;;3.30;;
67564;SDS011;54393;53.556;49.216;2022-12-07T09:08:57;4.68;;;4.25;;
67564;SDS011;54393;53.556;49.216;2022-12-07T09:11:25;4.37;;;3.97;;
67564;SDS011;54393;53.556;49.216;2022-12-07T09:13:51;4.35;;;3.85;;
67564;SDS011;54393;53.556;49.216;2022-12-07T09:16:17;3.90;;;3.60;;
67564;SDS011;54393;53.556;49.216;2022-12-07T09:18:44;4.40;;;4.00;;
67564;SDS011;54393;53.556;49.216;2022-12-07T09:21:10;3.85;;;3.55;;
67564;SDS011;54393;53.556;49.216;2022-12-07T09:23:37;4.07;;;3.50;;
67564;SDS011;54393;53.556;49.216;2022-12-07T09:26:04;3.87;;;3.58;;
67564;SDS011;54393;53.556;49.216;2022-12-07T09:28:30;3.78;;;3.47;;
67564;SDS011;54393;53.556;49.216;2022-12-07T09:30:57;4.03;;;3.62;;
67564;SDS011;54393;53.556;49.216;2022-12-07T09:33:23;3.75;;;3.45;;
67564;SDS011;54393;53.556;49.216;2022-12-07T09:35:50;4.43;;;3.80;;
67564;SDS011;54393;53.556;49.216;2022-12-07T09:38:18;3.95;;;3.65;;
67564;SDS011;54393;53.556;49.216;2022-12-07T09:40:45;3.55;;;3.25;;
67564;SDS011;54393;53.556;49.216;2022-12-07T09:43:19;4.20;;;3.80;;
67564;SDS011;54393;53.556;49.216;2022-12-07T09:45:53;4.47;;;3.92;;
67564;SDS011;54393;53.556;49.216;2022-12-07T09:48:30;4.20;;;3.80;;
67564;SDS011;54393;53.556;49.216;2022-12-07T09:51:18;5.05;;;3.50;;
67564;SDS011;54393;53.556;49.216;2022-12-07T09:53:46;4.03;;;3.62;;
67564;SDS011;54393;53.556;49.216;2022-12-07T09:56:16;6.30;;;4.00;;
67564;SDS011;54393;53.556;49.216;2022-12-07T09:58:43;7.22;;;3.58;;
67564;SDS011;54393;53.556;49.216;2022-12-07T10:01:12;4.07;;;3.25;;
67564;SDS011;54393;53.556;49.216;2022-12-07T10:03:51;4.05;;;3.65;;
67564;SDS011;54393;53.556;49.216;2022-12-07T10:06:19;4.30;;;3.92;;
67564;SDS011;54393;53.556;49.216;2022-12-07T10:08:46;4.78;;;4.25;;
67564;SDS011;54393;53.556;49.216;2022-12-07T10:11:13;8.45;;;5.25;;
67564;SDS011;54393;53.556;49.216;2022-12-07T10:13:42;7.50;;;4.82;;
67564;SDS011;54393;53.556;49.216;2022-12-07T10:18:50;5.35;;;4.30;;
67564;SDS011;54393;53.556;49.216;2022-12-07T10:21:18;5.45;;;4.70;;
67564;SDS011;54393;53.556;49.216;2022-12-07T10:24:02;5.40;;;4.90;;
67564;SDS011;54393;53.556;49.216;2022-12-07T10:29:19;6.07;;;4.57;;
67564;SDS011;54393;53.556;49.216;2022-12-07T10:31:49;4.65;;;4.07;;
67564;SDS011;54393;53.556;49.216;2022-12-07T10:34:23;4.68;;;3.80;;
67564;SDS011;54393;53.556;49.216;2022-12-07T10:36:51;5.00;;;4.18;;
67564;SDS011;54393;53.556;49.216;2022-12-07T10:39:19;4.47;;;3.80;;
67564;SDS011;54393;53.556;49.216;2022-12-07T10:41:57;4.50;;;4.10;;
67564;SDS011;54393;53.556;49.216;2022-12-07T10:44:26;3.60;;;3.30;;
67564;SDS011;54393;53.556;49.216;2022-12-07T10:46:57;5.93;;;4.28;;
67564;SDS011;54393;53.556;49.216;2022-12-07T10:49:43;6.97;;;4.60;;
67564;SDS011;54393;53.556;49.216;2022-12-07T10:54:55;6.12;;;5.22;;
67564;SDS011;54393;53.556;49.216;2022-12-07T11:00:21;4.53;;;4.13;;
67564;SDS011;54393;53.556;49.216;2022-12-07T11:13:50;6.37;;;4.62;;
67564;SDS011;54393;53.556;49.216;2022-12-07T11:16:33;5.43;;;4.45;;
67564;SDS011;54393;53.556;49.216;2022-12-07T11:21:39;5.53;;;4.90;;
67564;SDS011;54393;53.556;49.216;2022-12-07T11:24:27;5.07;;;4.35;;
67564;SDS011;54393;53.556;49.216;2022-12-07T11:27:02;5.12;;;4.43;;
67564;SDS011;54393;53.556;49.216;2022-12-07T11:35:11;6.80;;;5.15;;
67564;SDS011;54393;53.556;49.216;2022-12-07T11:38:08;5.97;;;4.65;;
67564;SDS011;54393;53.556;49.216;2022-12-07T11:40:36;5.95;;;4.87;;
67564;SDS011;54393;53.556;49.216;2022-12-07T11:43:18;8.13;;;4.82;;
67564;SDS011;54393;53.556;49.216;2022-12-07T11:45:47;7.28;;;5.22;;
67564;SDS011;54393;53.556;49.216;2022-12-07T11:48:46;6.68;;;5.57;;
67564;SDS011;54393;53.556;49.216;2022-12-07T11:51:12;7.32;;;5.80;;
67564;SDS011;54393;53.556;49.216;2022-12-07T11:53:44;5.85;;;5.30;;
67564;SDS011;54393;53.556;49.216;2022-12-07T11:56:22;8.15;;;5.32;;
67564;SDS011;54393;53.556;49.216;2022-12-07T11:59:04;6.22;;;5.62;;
67564;SDS011;54393;53.556;49.216;2022-12-07T12:07:34;6.80;;;4.90;;
67564;SDS011;54393;53.556;49.216;2022-12-07T12:10:14;6.72;;;5.28;;
67564;SDS011;54393;53.556;49.216;2022-12-07T12:12:50;6.12;;;4.95;;
67564;SDS011;54393;53.556;49.216;2022-12-07T12:21:00;4.40;;;4.00;;
67564;SDS011;54393;53.556;49.216;2022-12-07T12:26:13;4.10;;;3.70;;
67564;SDS011;54393;53.556;49.216;2022-12-07T12:33:50;5.37;;;3.92;;
67564;SDS011;54393;53.556;49.216;2022-12-07T12:36:20;4.68;;;3.85;;
67564;SDS011;54393;53.556;49.216;2022-12-07T12:38:50;4.97;;;3.53;;
67564;SDS011;54393;53.556;49.216;2022-12-07T12:54:15;3.40;;;3.20;;
67564;SDS011;54393;53.556;49.216;2022-12-07T12:57:06;4.80;;;3.55;;
67564;SDS011;54393;53.556;49.216;2022-12-07T12:59:31;3.53;;;3.22;;
67564;SDS011;54393;53.556;49.216;2022-12-07T13:05:03;3.85;;;3.55;;
67564;SDS011;54393;53.556;49.216;2022-12-07T13:10:21;3.37;;;3.08;;
67564;SDS011;54393;53.556;49.216;2022-12-07T13:12:57;5.30;;;3.30;;
67564;SDS011;54393;53.556;49.216;2022-12-07T13:15:34;4.68;;;3.00;;
67564;SDS011;54393;53.556;49.216;2022-12-07T13:18:02;3.90;;;3.45;;
67564;SDS011;54393;53.556;49.216;2022-12-07T13:28:38;3.08;;;2.78;;
67564;SDS011;54393;53.556;49.216;2022-12-07T13:31:11;3.17;;;2.87;;
67564;SDS011;54393;53.556;49.216;2022-12-07T13:33:44;3.55;;;3.25;;
67564;SDS011;54393;53.556;49.216;2022-12-07T13:36:14;2.80;;;2.60;;
67564;SDS011;54393;53.556;49.216;2022-12-07T13:38:54;3.85;;;3.47;;
67564;SDS011;54393;53.556;49.216;2022-12-07T13:41:22;3.28;;;3.03;;
67564;SDS011;54393;53.556;49.216;2022-12-07T13:44:33;2.90;;;2.70;;
67564;SDS011;54393;53.556;49.216;2022-12-07T13:49:30;3.40;;;3.10;;
67564;SDS011;54393;53.556;49.216;2022-12-07T13:54:58;2.83;;;2.62;;
67564;SDS011;54393;53.556;49.216;2022-12-07T13:57:27;4.00;;;2.97;;
67564;SDS011;54393;53.556;49.216;2022-12-07T13:59:55;3.45;;;2.60;;
67564;SDS011;54393;53.556;49.216;2022-12-07T14:05:07;4.35;;;3.00;;
67564;SDS011;54393;53.556;49.216;2022-12-07T14:07:34;3.28;;;2.97;;
67564;SDS011;54393;53.556;49.216;2022-12-07T14:10:27;2.90;;;2.53;;
67564;SDS011;54393;53.556;49.216;2022-12-07T14:13:50;4.20;;;3.00;;
67564;SDS011;54393;53.556;49.216;2022-12-07T14:16:28;3.00;;;2.78;;
67564;SDS011;54393;53.556;49.216;2022-12-07T14:18:56;2.70;;;2.50;;
67564;SDS011;54393;53.556;49.216;2022-12-07T14:21:25;2.60;;;2.40;;
67564;SDS011;54393;53.556;49.216;2022-12-07T14:26:46;3.33;;;3.03;;
67564;SDS011;54393;53.556;49.216;2022-12-07T14:29:29;4.00;;;3.20;;
67564;SDS011;54393;53.556;49.216;2022-12-07T14:31:58;3.17;;;2.97;;
67564;SDS011;54393;53.556;49.216;2022-12-07T14:34:57;3.50;;;2.90;;
67564;SDS011;54393;53.556;49.216;2022-12-07T14:37:23;2.72;;;2.53;;
67564;SDS011;54393;53.556;49.216;2022-12-07T14:39:50;3.40;;;3.10;;
67564;SDS011;54393;53.556;49.216;2022-12-07T14:42:17;2.87;;;2.67;;
67564;SDS011;54393;53.556;49.216;2022-12-07T14:44:44;3.22;;;2.90;;
67564;SDS011;54393;53.556;49.216;2022-12-07T14:47:11;3.10;;;2.83;;
67564;SDS011;54393;53.556;49.216;2022-12-07T14:49:37;2.75;;;2.53;;
67564;SDS011;54393;53.556;49.216;2022-12-07T14:52:04;2.90;;;2.70;;
67564;SDS011;54393;53.556;49.216;2022-12-07T14:54:35;3.80;;;2.62;;
67564;SDS011;54393;53.556;49.216;2022-12-07T14:57:02;3.10;;;2.80;;
67564;SDS011;54393;53.556;49.216;2022-12-07T14:59:28;2.95;;;2.42;;
67564;SDS011;54393;53.556;49.216;2022-12-07T15:01:55;3.17;;;2.92;;
67564;SDS011;54393;53.556;49.216;2022-12-07T15:04:21;3.67;;;2.70;;
67564;SDS011;54393;53.556;49.216;2022-12-07T15:06:58;3.12;;;2.83;;
67564;SDS011;54393;53.556;49.216;2022-12-07T15:09:25;3.53;;;2.60;;
67564;SDS011;54393;53.556;49.216;2022-12-07T15:11:52;3.17;;;2.60;;
67564;SDS011;54393;53.556;49.216;2022-12-07T15:14:18;2.60;;;2.40;;
67564;SDS011;54393;53.556;49.216;2022-12-07T15:16:45;2.62;;;2.42;;
67564;SDS011;54393;53.556;49.216;2022-12-07T15:19:12;4.40;;;3.03;;
67564;SDS011;54393;53.556;49.216;2022-12-07T15:21:40;3.20;;;3.00;;
67564;SDS011;54393;53.556;49.216;2022-12-07T15:24:08;2.53;;;2.33;;
67564;SDS011;54393;53.556;49.216;2022-12-07T15:26:35;2.53;;;2.33;;
67564;SDS011;54393;53.556;49.216;2022-12-07T15:29:02;2.50;;;2.30;;
67564;SDS011;54393;53.556;49.216;2022-12-07T15:31:29;2.62;;;2.40;;
67564;SDS011;54393;53.556;49.216;2022-12-07T15:33:55;2.67;;;2.47;;
67564;SDS011;54393;53.556;49.216;2022-12-07T15:36:27;2.58;;;2.35;;
67564;SDS011;54393;53.556;49.216;2022-12-07T15:38:54;2.65;;;2.45;;
67564;SDS011;54393;53.556;49.216;2022-12-07T15:41:20;2.85;;;2.37;;
67564;SDS011;54393;53.556;49.216;2022-12-07T15:43:47;2.72;;;2.50;;
67564;SDS011;54393;53.556;49.216;2022-12-07T15:46:33;2.80;;;2.60;;
67564;SDS011;54393;53.556;49.216;2022-12-07T15:49:02;2.78;;;2.58;;
67564;SDS011;54393;53.556;49.216;2022-12-07T15:51:29;3.30;;;2.87;;
67564;SDS011;54393;53.556;49.216;2022-12-07T15:53:57;3.00;;;2.45;;
67564;SDS011;54393;53.556;49.216;2022-12-07T15:56:23;2.90;;;2.70;;
67564;SDS011;54393;53.556;49.216;2022-12-07T15:58:50;2.70;;;2.47;;
67564;SDS011;54393;53.556;49.216;2022-12-07T16:01:18;3.08;;;2.87;;
67564;SDS011;54393;53.556;49.216;2022-12-07T16:03:45;2.65;;;2.45;;
67564;SDS011;54393;53.556;49.216;2022-12-07T16:06:15;4.70;;;2.67;;
67564;SDS011;54393;53.556;49.216;2022-12-07T16:08:45;2.97;;;2.72;;
67564;SDS011;54393;53.556;49.216;2022-12-07T16:11:12;2.95;;;2.55;;
67564;SDS011;54393;53.556;49.216;2022-12-07T16:13:39;3.35;;;2.75;;
67564;SDS011;54393;53.556;49.216;2022-12-07T16:16:07;4.28;;;2.75;;
67564;SDS011;54393;53.556;49.216;2022-12-07T16:18:35;4.22;;;3.00;;
67564;SDS011;54393;53.556;49.216;2022-12-07T16:21:02;2.85;;;2.60;;
67564;SDS011;54393;53.556;49.216;2022-12-07T16:23:29;2.80;;;2.60;;
67564;SDS011;54393;53.556;49.216;2022-12-07T16:26:03;3.70;;;2.55;;
67564;SDS011;54393;53.556;49.216;2022-12-07T16:28:34;4.10;;;3.37;;
67564;SDS011;54393;53.556;49.216;2022-12-07T16:31:10;4.50;;;2.75;;
67564;SDS011;54393;53.556;49.216;2022-12-07T16:33:39;2.60;;;2.40;;
67564;SDS011;54393;53.556;49.216;2022-12-07T16:36:07;3.65;;;2.80;;
67564;SDS011;54393;53.556;49.216;2022-12-07T16:38:34;3.95;;;3.12;;
67564;SDS011;54393;53.556;49.216;2022-12-07T16:41:00;2.58;;;2.37;;
67564;SDS011;54393;53.556;49.216;2022-12-07T16:43:27;2.90;;;2.65;;
67564;SDS011;54393;53.556;49.216;2022-12-07T16:45:54;2.92;;;2.30;;
67564;SDS011;54393;53.556;49.216;2022-12-07T16:48:20;2.50;;;2.30;;
67564;SDS011;54393;53.556;49.216;2022-12-07T16:50:47;2.45;;;2.25;;
67564;SDS011;54393;53.556;49.216;2022-12-07T16:53:13;3.20;;;2.90;;
67564;SDS011;54393;53.556;49.216;2022-12-07T16:55:41;3.22;;;2.40;;